Time;durP1;ratioP1;P1;durP2;ratioP2;P2;SDS_P1;SDS_P2;PMS_P1;PMS_P2;Temp;Humidity;BMP_temperature;BMP_pressure;BME280_temperature;BME280_humidity;BME280_pressure;Samples;Min_cycle;Max_cycle;Signal;HPM_P1;HPM_P2
2021/10/20 00:02:20;;;;;;;6.82;6.13;;;;;;;;;;5093698;28;20211;-87
2021/10/20 00:04:49;;;;;;;7.65;6.95;;;;;;;;;;5093521;28;20223;-86
2021/10/20 00:07:17;;;;;;;6.85;6.15;;;;;;;;;;5093792;28;20558;-87
2021/10/20 00:09:48;;;;;;;8.82;7.10;;;;;;;;;;5092970;28;20227;-85
2021/10/20 00:12:16;;;;;;;7.05;6.38;;;;;;;;;;5093452;28;20663;-86
2021/10/20 00:14:44;;;;;;;6.03;5.53;;;;;;;;;;5093575;28;20185;-88
2021/10/20 00:17:19;;;;;;;7.15;6.45;;;;;;;;;;5092989;28;20577;-85
2021/10/20 00:19:53;;;;;;;7.68;6.18;;;;;;;;;;5093247;28;20311;-86
2021/10/20 00:22:23;;;;;;;8.18;7.38;;;;;;;;;;5093505;28;20187;-88
2021/10/20 00:24:52;;;;;;;6.57;5.95;;;;;;;;;;5093304;28;20219;-87
2021/10/20 00:27:20;;;;;;;7.03;6.30;;;;;;;;;;5093162;28;20223;-87
2021/10/20 00:29:47;;;;;;;5.13;4.72;;;;;;;;;;5091766;28;20270;-86
2021/10/20 00:32:16;;;;;;;5.30;4.80;;;;;;;;;;5093087;28;20180;-87
2021/10/20 00:34:51;;;;;;;5.05;4.65;;;;;;;;;;5093232;28;20191;-87
2021/10/20 00:37:20;;;;;;;6.07;5.50;;;;;;;;;;5092795;28;20681;-87
2021/10/20 00:39:55;;;;;;;6.45;5.93;;;;;;;;;;5092885;28;20694;-87
2021/10/20 00:42:23;;;;;;;6.55;5.95;;;;;;;;;;5093240;28;20210;-85
2021/10/20 00:44:53;;;;;;;8.70;6.88;;;;;;;;;;5092588;28;20694;-87
2021/10/20 00:47:28;;;;;;;5.70;5.20;;;;;;;;;;5092729;28;20664;-87
2021/10/20 00:50:00;;;;;;;5.35;4.85;;;;;;;;;;5092980;28;20227;-87
2021/10/20 00:52:38;;;;;;;5.82;5.32;;;;;;;;;;5092885;28;20196;-87
2021/10/20 00:55:10;;;;;;;5.55;4.80;;;;;;;;;;5093227;28;20188;-87
2021/10/20 00:57:47;;;;;;;4.75;4.35;;;;;;;;;;5093762;28;20569;-87
2021/10/20 01:00:17;;;;;;;5.65;5.15;;;;;;;;;;5093733;28;20189;-87
2021/10/20 01:02:47;;;;;;;4.18;3.78;;;;;;;;;;5093644;28;20272;-88
2021/10/20 01:05:16;;;;;;;5.85;4.82;;;;;;;;;;5093085;28;20254;-87
2021/10/20 01:07:54;;;;;;;5.40;4.90;;;;;;;;;;5093579;28;20243;-87
2021/10/20 01:10:28;;;;;;;5.25;4.85;;;;;;;;;;5093578;28;20202;-87
2021/10/20 01:12:57;;;;;;;4.20;3.90;;;;;;;;;;5093646;28;20207;-87
2021/10/20 01:15:32;;;;;;;4.85;4.40;;;;;;;;;;5093734;28;20199;-87
2021/10/20 01:18:07;;;;;;;3.95;3.60;;;;;;;;;;5093992;28;20220;-87
2021/10/20 01:20:36;;;;;;;5.03;4.55;;;;;;;;;;5094676;28;20267;-87
2021/10/20 01:23:06;;;;;;;4.93;4.53;;;;;;;;;;5097202;28;20184;-87
2021/10/20 01:26:03;;;;;;;6.95;5.97;;;;;;;;;;5097158;28;20552;-87
2021/10/20 01:28:37;;;;;;;5.25;4.85;;;;;;;;;;5096763;28;20216;-87
2021/10/20 01:31:19;;;;;;;5.07;4.68;;;;;;;;;;5096755;28;20223;-87
2021/10/20 01:33:53;;;;;;;6.28;4.72;;;;;;;;;;5096942;28;20722;-87
2021/10/20 01:36:21;;;;;;;5.95;4.20;;;;;;;;;;5097565;28;20339;-87
2021/10/20 01:39:00;;;;;;;5.05;4.65;;;;;;;;;;5097647;28;20216;-87
2021/10/20 01:41:29;;;;;;;6.15;5.60;;;;;;;;;;5097422;28;20192;-87
2021/10/20 01:43:58;;;;;;;5.53;5.03;;;;;;;;;;5097161;28;20235;-87
2021/10/20 01:46:26;;;;;;;5.50;5.03;;;;;;;;;;5097325;28;20204;-87
2021/10/20 01:48:54;;;;;;;8.52;6.07;;;;;;;;;;5096663;28;20221;-87
2021/10/20 01:51:21;;;;;;;5.57;5.07;;;;;;;;;;5097490;28;20195;-86
2021/10/20 01:53:51;;;;;;;5.30;4.88;;;;;;;;;;5096957;28;20176;-87
2021/10/20 01:56:22;;;;;;;7.40;6.70;;;;;;;;;;5096565;28;20195;-87
2021/10/20 01:58:51;;;;;;;4.82;4.43;;;;;;;;;;5096512;28;20224;-87
2021/10/20 02:01:20;;;;;;;4.75;4.35;;;;;;;;;;5096266;28;20180;-87
2021/10/20 02:04:29;;;;;;;5.47;4.95;;;;;;;;;;5096175;28;20219;-87
2021/10/20 02:06:57;;;;;;;5.18;4.03;;;;;;;;;;5096158;28;20211;-87
2021/10/20 02:09:24;;;;;;;4.93;4.40;;;;;;;;;;5096018;28;20216;-87
2021/10/20 02:11:55;;;;;;;5.40;4.93;;;;;;;;;;5095469;28;20200;-86
2021/10/20 02:14:22;;;;;;;4.63;4.18;;;;;;;;;;5095727;28;20202;-87
2021/10/20 02:17:06;;;;;;;4.90;4.50;;;;;;;;;;5095717;28;20188;-88
2021/10/20 02:19:48;;;;;;;5.60;4.80;;;;;;;;;;5095537;28;20719;-87
2021/10/20 02:22:17;;;;;;;5.18;4.68;;;;;;;;;;5095487;28;20185;-87
2021/10/20 02:24:45;;;;;;;4.35;3.95;;;;;;;;;;5095128;28;20196;-88
2021/10/20 02:27:21;;;;;;;4.80;4.40;;;;;;;;;;5078894;28;20691;-87
2021/10/20 02:29:48;;;;;;;4.53;4.22;;;;;;;;;;5074931;28;20208;-86
2021/10/20 02:32:17;;;;;;;4.60;4.20;;;;;;;;;;5074225;28;20181;-87
2021/10/20 02:34:47;;;;;;;4.50;4.07;;;;;;;;;;5077241;28;20197;-87
2021/10/20 02:37:16;;;;;;;8.35;5.75;;;;;;;;;;5095252;28;20233;-87
2021/10/20 02:39:44;;;;;;;6.00;4.28;;;;;;;;;;5095067;28;20219;-87
2021/10/20 02:42:13;;;;;;;5.15;4.65;;;;;;;;;;5095095;28;20193;-87
2021/10/20 02:44:53;;;;;;;4.20;3.85;;;;;;;;;;5075723;28;20685;-87
2021/10/20 02:47:21;;;;;;;4.40;4.03;;;;;;;;;;5074594;28;20698;-87
2021/10/20 02:50:01;;;;;;;4.43;4.07;;;;;;;;;;5075076;28;20601;-86
2021/10/20 02:52:28;;;;;;;4.25;3.88;;;;;;;;;;5074956;28;20217;-87
2021/10/20 02:54:56;;;;;;;5.20;3.60;;;;;;;;;;5074955;28;20189;-88
2021/10/20 02:57:24;;;;;;;3.88;3.47;;;;;;;;;;5074812;28;20190;-87
2021/10/20 02:59:57;;;;;;;4.28;3.88;;;;;;;;;;5074027;28;20578;-87
2021/10/20 03:02:31;;;;;;;3.30;3.00;;;;;;;;;;5073940;28;20193;-87
2021/10/20 03:05:06;;;;;;;4.13;3.83;;;;;;;;;;5074270;28;20174;-88
2021/10/20 03:07:52;;;;;;;4.60;4.07;;;;;;;;;;5082948;28;20228;-88
2021/10/20 03:10:20;;;;;;;4.78;4.15;;;;;;;;;;5095299;28;20211;-87
2021/10/20 03:13:25;;;;;;;5.55;4.60;;;;;;;;;;5095405;28;20183;-89
2021/10/20 03:16:02;;;;;;;3.47;3.08;;;;;;;;;;5094901;28;20650;-87
2021/10/20 03:18:34;;;;;;;3.63;3.33;;;;;;;;;;5094937;28;20713;-88
2021/10/20 03:21:02;;;;;;;4.35;3.92;;;;;;;;;;5094724;28;20192;-88
2021/10/20 03:23:39;;;;;;;3.95;3.50;;;;;;;;;;5094868;28;20188;-87
2021/10/20 03:26:06;;;;;;;4.90;3.78;;;;;;;;;;5094689;28;20199;-87
2021/10/20 03:28:35;;;;;;;3.45;3.15;;;;;;;;;;5094613;28;20231;-86
2021/10/20 03:31:19;;;;;;;4.32;3.60;;;;;;;;;;5094261;28;20235;-86
2021/10/20 03:34:06;;;;;;;3.22;2.95;;;;;;;;;;5094418;28;20183;-87
2021/10/20 03:37:02;;;;;;;4.30;3.35;;;;;;;;;;5094340;28;20551;-87
2021/10/20 03:39:30;;;;;;;4.55;4.15;;;;;;;;;;5093939;28;20598;-88
2021/10/20 03:42:19;;;;;;;5.07;4.57;;;;;;;;;;5094826;28;20189;-88
2021/10/20 03:44:49;;;;;;;3.40;3.10;;;;;;;;;;5094212;28;20191;-87
2021/10/20 03:47:35;;;;;;;4.20;3.55;;;;;;;;;;5095120;28;20252;-87
2021/10/20 03:50:16;;;;;;;3.20;2.90;;;;;;;;;;5095511;28;20214;-88
2021/10/20 03:52:47;;;;;;;3.95;3.65;;;;;;;;;;5096949;28;20191;-87
2021/10/20 03:55:18;;;;;;;3.60;3.30;;;;;;;;;;5096052;28;20559;-87
2021/10/20 03:57:46;;;;;;;3.30;3.00;;;;;;;;;;5095848;28;20650;-87
2021/10/20 04:00:21;;;;;;;4.05;3.70;;;;;;;;;;5096785;28;20204;-87
2021/10/20 04:02:49;;;;;;;3.75;3.40;;;;;;;;;;5096801;28;20184;-87
2021/10/20 04:05:20;;;;;;;2.70;2.50;;;;;;;;;;5097754;28;20185;-87
2021/10/20 04:07:54;;;;;;;3.33;3.00;;;;;;;;;;5096544;28;20578;-87
2021/10/20 04:10:24;;;;;;;3.97;3.53;;;;;;;;;;5099895;28;20195;-86
2021/10/20 04:12:53;;;;;;;3.30;3.00;;;;;;;;;;5093650;28;20275;-87
2021/10/20 04:15:23;;;;;;;3.65;3.35;;;;;;;;;;5092487;28;20745;-86
2021/10/20 04:17:52;;;;;;;4.00;3.30;;;;;;;;;;5093103;28;20226;-85
2021/10/20 04:20:24;;;;;;;3.00;2.80;;;;;;;;;;5093270;28;20200;-86
2021/10/20 04:22:54;;;;;;;3.05;2.78;;;;;;;;;;5093494;28;20268;-87
2021/10/20 04:25:24;;;;;;;3.47;3.17;;;;;;;;;;5093654;28;20188;-87
2021/10/20 04:28:01;;;;;;;3.38;3.08;;;;;;;;;;5092872;28;20714;-86
2021/10/20 04:30:29;;;;;;;3.65;3.35;;;;;;;;;;5087437;28;20227;-87
2021/10/20 04:32:58;;;;;;;4.03;3.58;;;;;;;;;;5092637;28;20200;-86
2021/10/20 04:35:31;;;;;;;2.63;2.42;;;;;;;;;;5093196;28;20192;-87
2021/10/20 04:38:05;;;;;;;3.17;2.70;;;;;;;;;;5082044;28;20216;-87
2021/10/20 04:40:40;;;;;;;3.75;2.67;;;;;;;;;;5073237;28;20193;-87
2021/10/20 04:43:31;;;;;;;2.78;2.58;;;;;;;;;;5076878;28;20208;-87
2021/10/20 04:46:02;;;;;;;3.10;2.80;;;;;;;;;;5072695;28;20199;-87
2021/10/20 04:48:49;;;;;;;3.97;3.20;;;;;;;;;;5072997;28;20232;-87
2021/10/20 04:51:17;;;;;;;2.67;2.47;;;;;;;;;;5072743;28;20193;-86
2021/10/20 04:53:52;;;;;;;2.92;2.72;;;;;;;;;;5072414;28;20205;-87
2021/10/20 04:56:28;;;;;;;3.38;3.08;;;;;;;;;;5072313;28;20184;-88
2021/10/20 04:58:56;;;;;;;3.70;3.03;;;;;;;;;;5072459;28;20223;-86
2021/10/20 05:01:24;;;;;;;3.08;2.78;;;;;;;;;;5072391;28;20185;-86
2021/10/20 05:03:57;;;;;;;2.58;2.38;;;;;;;;;;5077847;28;20184;-86
2021/10/20 05:06:43;;;;;;;3.00;2.70;;;;;;;;;;5111841;28;20697;-87
2021/10/20 05:09:17;;;;;;;2.88;2.65;;;;;;;;;;5092200;28;20222;-86
2021/10/20 05:11:52;;;;;;;2.67;2.45;;;;;;;;;;5092688;28;20200;-87
2021/10/20 05:15:03;;;;;;;3.35;3.05;;;;;;;;;;5091609;28;20188;-87
2021/10/20 05:17:36;;;;;;;4.20;2.72;;;;;;;;;;5082800;28;20191;-87
2021/10/20 05:20:24;;;;;;;3.00;2.80;;;;;;;;;;5092302;28;20543;-87
2021/10/20 05:22:53;;;;;;;3.15;2.47;;;;;;;;;;5092885;28;20195;-86
2021/10/20 05:25:22;;;;;;;3.15;2.90;;;;;;;;;;5092875;28;20184;-86
2021/10/20 05:27:59;;;;;;;2.88;2.60;;;;;;;;;;5092555;28;20208;-87
2021/10/20 05:30:26;;;;;;;2.72;2.53;;;;;;;;;;5092113;28;20254;-87
2021/10/20 05:32:56;;;;;;;3.63;3.25;;;;;;;;;;5092664;28;20193;-86
2021/10/20 05:35:27;;;;;;;4.60;3.25;;;;;;;;;;5091635;28;20185;-85
2021/10/20 05:38:00;;;;;;;2.80;2.55;;;;;;;;;;5092402;28;20212;-85
2021/10/20 05:40:38;;;;;;;3.10;2.90;;;;;;;;;;5092469;28;20859;-86
2021/10/20 05:43:05;;;;;;;4.13;2.92;;;;;;;;;;5091199;28;20200;-88
2021/10/20 05:45:32;;;;;;;3.17;2.88;;;;;;;;;;5091774;28;20691;-86
2021/10/20 05:48:04;;;;;;;3.38;3.08;;;;;;;;;;5095282;28;20670;-87
2021/10/20 05:50:35;;;;;;;3.10;2.80;;;;;;;;;;5112818;28;20180;-87
2021/10/20 05:53:05;;;;;;;3.13;2.83;;;;;;;;;;5112715;28;20184;-86
2021/10/20 05:55:34;;;;;;;4.30;3.10;;;;;;;;;;5112896;28;20195;-86
2021/10/20 05:58:08;;;;;;;2.90;2.70;;;;;;;;;;5112684;28;20330;-88
2021/10/20 06:00:36;;;;;;;3.15;2.88;;;;;;;;;;5112376;28;20830;-87
2021/10/20 06:03:16;;;;;;;4.30;2.80;;;;;;;;;;5112486;28;20180;-87
2021/10/20 06:05:45;;;;;;;3.63;3.33;;;;;;;;;;5112756;28;20215;-89
2021/10/20 06:08:12;;;;;;;2.63;2.42;;;;;;;;;;5113628;28;20431;-87
2021/10/20 06:10:40;;;;;;;3.17;2.88;;;;;;;;;;5115775;28;20224;-88
2021/10/20 06:13:09;;;;;;;2.70;2.50;;;;;;;;;;5116365;28;20253;-90
2021/10/20 06:15:37;;;;;;;3.42;3.13;;;;;;;;;;5116015;28;20200;-89
2021/10/20 06:18:05;;;;;;;3.17;2.88;;;;;;;;;;5116055;28;20645;-89
2021/10/20 06:20:40;;;;;;;3.45;3.03;;;;;;;;;;5116495;28;20632;-90
2021/10/20 06:23:18;;;;;;;3.20;3.00;;;;;;;;;;5116177;28;20195;-89
2021/10/20 06:26:00;;;;;;;3.15;2.83;;;;;;;;;;5116340;28;20199;-90
2021/10/20 06:28:32;;;;;;;2.80;2.60;;;;;;;;;;5116187;28;20223;-90
2021/10/20 06:31:04;;;;;;;2.97;2.78;;;;;;;;;;5116027;28;20599;-89
2021/10/20 06:33:32;;;;;;;3.13;2.70;;;;;;;;;;5116133;28;20195;-87
2021/10/20 06:36:01;;;;;;;4.18;2.88;;;;;;;;;;5115974;28;20606;-90
2021/10/20 06:38:30;;;;;;;3.50;2.80;;;;;;;;;;5115311;28;20227;-90
2021/10/20 06:40:57;;;;;;;3.10;2.60;;;;;;;;;;5115900;28;20200;-91
2021/10/20 06:43:25;;;;;;;3.05;2.80;;;;;;;;;;5115689;28;20295;-88
2021/10/20 06:45:52;;;;;;;3.25;2.80;;;;;;;;;;5115083;28;20207;-89
2021/10/20 06:48:20;;;;;;;3.58;3.28;;;;;;;;;;5115153;28;20223;-89
2021/10/20 06:50:47;;;;;;;3.25;2.95;;;;;;;;;;5115002;28;20233;-92
2021/10/20 06:53:15;;;;;;;5.35;3.10;;;;;;;;;;5115119;28;20638;-91
2021/10/20 06:55:45;;;;;;;3.00;2.70;;;;;;;;;;5115192;28;20228;-90
2021/10/20 06:58:13;;;;;;;2.80;2.60;;;;;;;;;;5114455;28;20216;-91
2021/10/20 07:00:40;;;;;;;2.78;2.58;;;;;;;;;;5114870;28;20581;-89
2021/10/20 07:03:07;;;;;;;2.75;2.53;;;;;;;;;;5114831;28;20200;-90
2021/10/20 07:05:35;;;;;;;3.15;2.85;;;;;;;;;;5115105;28;20199;-91
2021/10/20 07:08:02;;;;;;;2.70;2.50;;;;;;;;;;5114851;28;20219;-90
2021/10/20 07:10:30;;;;;;;3.47;3.17;;;;;;;;;;5114778;28;20709;-90
2021/10/20 07:12:58;;;;;;;3.42;3.13;;;;;;;;;;5103267;28;20196;-90
2021/10/20 07:15:26;;;;;;;4.40;3.38;;;;;;;;;;5094425;28;20193;-88
2021/10/20 07:18:02;;;;;;;3.05;2.70;;;;;;;;;;5094207;28;20217;-87
2021/10/20 07:20:37;;;;;;;3.70;3.30;;;;;;;;;;5093927;28;20539;-86
2021/10/20 07:23:05;;;;;;;4.65;3.88;;;;;;;;;;5094713;28;20625;-87
2021/10/20 07:25:47;;;;;;;3.20;2.95;;;;;;;;;;5094115;28;20271;-86
2021/10/20 07:28:18;;;;;;;2.75;2.55;;;;;;;;;;5093836;28;20227;-86
2021/10/20 07:30:45;;;;;;;3.13;2.92;;;;;;;;;;5094896;28;20233;-86
2021/10/20 07:33:34;;;;;;;3.20;2.97;;;;;;;;;;5093859;28;20284;-88
2021/10/20 07:36:08;;;;;;;4.05;2.70;;;;;;;;;;5094520;28;20208;-87
2021/10/20 07:39:35;;;;;;;3.72;3.42;;;;;;;;;;5094614;28;20211;-89
2021/10/20 07:42:06;;;;;;;2.83;2.63;;;;;;;;;;5098259;28;20192;-90
2021/10/20 07:44:39;;;;;;;3.88;3.47;;;;;;;;;;5094166;28;20216;-90
2021/10/20 07:47:37;;;;;;;3.55;3.25;;;;;;;;;;5093810;28;20216;-90
2021/10/20 07:50:08;;;;;;;21.52;3.55;;;;;;;;;;5093553;28;20231;-91
2021/10/20 07:52:38;;;;;;;3.63;3.33;;;;;;;;;;5093905;28;20201;-87
2021/10/20 07:55:08;;;;;;;3.58;3.28;;;;;;;;;;5093697;28;20183;-89
2021/10/20 07:57:40;;;;;;;4.10;3.28;;;;;;;;;;5093483;28;20653;-87
2021/10/20 08:00:12;;;;;;;3.35;3.05;;;;;;;;;;5093989;28;20192;-89
2021/10/20 08:02:39;;;;;;;4.70;3.63;;;;;;;;;;5093485;28;20204;-89
2021/10/20 08:05:11;;;;;;;3.60;3.30;;;;;;;;;;5093392;28;20629;-89
2021/10/20 08:07:44;;;;;;;3.90;3.60;;;;;;;;;;5093763;28;20220;-90
2021/10/20 08:10:12;;;;;;;3.70;3.38;;;;;;;;;;5093659;28;20209;-90
2021/10/20 08:12:48;;;;;;;3.33;3.10;;;;;;;;;;5094257;28;20267;-90
2021/10/20 08:16:08;;;;;;;3.33;3.05;;;;;;;;;;5094062;28;20200;-90
2021/10/20 08:18:50;;;;;;;3.60;3.30;;;;;;;;;;5093651;28;20217;-89
2021/10/20 08:21:46;;;;;;;3.40;3.17;;;;;;;;;;5093457;28;20196;-91
2021/10/20 08:24:15;;;;;;;3.75;3.13;;;;;;;;;;5094909;28;20283;-94
2021/10/20 08:26:52;;;;;;;3.58;3.28;;;;;;;;;;5095989;28;20672;-92
2021/10/20 08:29:24;;;;;;;3.15;2.85;;;;;;;;;;5093422;28;20222;-90
2021/10/20 08:31:55;;;;;;;4.00;3.15;;;;;;;;;;5092029;28;20309;-89
2021/10/20 08:34:23;;;;;;;3.70;3.40;;;;;;;;;;5093061;28;20295;-89
2021/10/20 08:36:50;;;;;;;4.13;3.72;;;;;;;;;;5092912;28;20204;-89
2021/10/20 08:39:19;;;;;;;3.03;2.83;;;;;;;;;;5092953;28;20716;-90
2021/10/20 08:41:49;;;;;;;3.55;3.25;;;;;;;;;;5092910;28;20196;-90
2021/10/20 08:44:18;;;;;;;3.22;3.03;;;;;;;;;;5092881;28;20246;-89
2021/10/20 08:46:57;;;;;;;3.78;3.47;;;;;;;;;;5092672;28;20742;-90
2021/10/20 08:49:29;;;;;;;3.58;3.28;;;;;;;;;;5091811;28;20208;-88
2021/10/20 08:52:02;;;;;;;3.22;2.92;;;;;;;;;;5092593;28;20196;-90
2021/10/20 08:54:32;;;;;;;3.95;3.65;;;;;;;;;;5096267;28;20202;-93
2021/10/20 08:57:00;;;;;;;3.35;3.05;;;;;;;;;;5096090;28;20224;-93
2021/10/20 08:59:47;;;;;;;3.75;3.40;;;;;;;;;;5095583;28;20220;-91
2021/10/20 09:02:17;;;;;;;11.60;6.15;;;;;;;;;;5092995;28;20191;-89
2021/10/20 09:04:45;;;;;;;3.90;3.60;;;;;;;;;;5092628;28;20219;-88
2021/10/20 09:07:15;;;;;;;3.85;3.55;;;;;;;;;;5091931;28;20188;-86
2021/10/20 09:09:53;;;;;;;3.30;3.00;;;;;;;;;;5092596;28;20346;-90
2021/10/20 09:12:31;;;;;;;4.05;3.67;;;;;;;;;;5085811;28;20230;-89
2021/10/20 09:15:04;;;;;;;4.10;3.70;;;;;;;;;;5072682;28;20250;-90
2021/10/20 09:17:46;;;;;;;3.85;3.55;;;;;;;;;;5072196;28;20339;-91
2021/10/20 09:20:26;;;;;;;4.00;3.22;;;;;;;;;;5072322;28;20189;-89
2021/10/20 09:23:02;;;;;;;4.22;3.55;;;;;;;;;;5072594;28;20187;-88
2021/10/20 09:25:42;;;;;;;3.08;2.88;;;;;;;;;;5086792;28;20192;-88
2021/10/20 09:28:12;;;;;;;4.90;4.05;;;;;;;;;;5092483;28;20220;-88
2021/10/20 09:30:43;;;;;;;6.13;4.13;;;;;;;;;;5091705;28;20705;-91
2021/10/20 09:33:13;;;;;;;3.88;3.58;;;;;;;;;;5092499;28;20200;-89
2021/10/20 09:35:47;;;;;;;3.78;3.47;;;;;;;;;;5092007;28;20639;-89
2021/10/20 09:38:15;;;;;;;3.92;3.55;;;;;;;;;;5089250;28;20606;-88
2021/10/20 09:40:47;;;;;;;4.95;4.50;;;;;;;;;;5093205;28;20638;-90
2021/10/20 09:43:18;;;;;;;4.05;3.63;;;;;;;;;;5095999;28;20197;-89
2021/10/20 09:45:49;;;;;;;3.67;3.38;;;;;;;;;;5096487;28;20639;-88
2021/10/20 09:48:21;;;;;;;3.42;3.20;;;;;;;;;;5096356;28;20226;-92
2021/10/20 09:50:57;;;;;;;4.35;3.95;;;;;;;;;;5096128;28;20224;-90
2021/10/20 09:53:33;;;;;;;4.70;4.20;;;;;;;;;;5096492;28;20196;-90
2021/10/20 09:56:02;;;;;;;5.55;4.20;;;;;;;;;;5078091;28;20193;-88
2021/10/20 09:58:33;;;;;;;3.85;3.55;;;;;;;;;;5080508;28;20704;-88
2021/10/20 10:01:02;;;;;;;5.10;4.70;;;;;;;;;;5095430;28;20250;-89
2021/10/20 10:03:43;;;;;;;4.53;4.13;;;;;;;;;;5095736;28;20189;-87
2021/10/20 10:06:13;;;;;;;4.80;3.97;;;;;;;;;;5096337;28;20686;-84
2021/10/20 10:08:54;;;;;;;6.88;4.57;;;;;;;;;;5096071;28;20213;-88
2021/10/20 10:11:22;;;;;;;4.55;4.15;;;;;;;;;;5096350;28;20201;-84
2021/10/20 10:13:53;;;;;;;4.30;3.97;;;;;;;;;;5096029;28;20184;-85
2021/10/20 10:16:23;;;;;;;4.35;3.95;;;;;;;;;;5089932;28;20181;-87
2021/10/20 10:18:56;;;;;;;3.78;3.47;;;;;;;;;;5094418;28;20231;-84
2021/10/20 10:21:32;;;;;;;4.28;3.83;;;;;;;;;;5095999;28;20196;-85
2021/10/20 10:24:01;;;;;;;3.50;3.20;;;;;;;;;;5095597;28;20210;-85
2021/10/20 10:26:29;;;;;;;3.53;3.33;;;;;;;;;;5095315;28;20287;-86
2021/10/20 10:29:12;;;;;;;4.60;3.63;;;;;;;;;;5095591;28;20227;-84
2021/10/20 10:31:44;;;;;;;4.88;4.45;;;;;;;;;;5092037;28;20683;-85
2021/10/20 10:34:21;;;;;;;3.28;2.97;;;;;;;;;;5095237;28;20184;-85
2021/10/20 10:36:53;;;;;;;4.38;4.05;;;;;;;;;;5089606;28;20193;-87
2021/10/20 10:39:21;;;;;;;4.88;4.47;;;;;;;;;;5074962;28;20311;-88
2021/10/20 10:41:49;;;;;;;4.25;3.90;;;;;;;;;;5074779;28;20182;-86
2021/10/20 10:44:21;;;;;;;4.38;4.07;;;;;;;;;;5074755;28;20173;-84
2021/10/20 10:47:19;;;;;;;3.40;3.10;;;;;;;;;;5088455;28;20184;-85
2021/10/20 10:49:53;;;;;;;4.82;4.28;;;;;;;;;;5087375;28;20219;-84
2021/10/20 10:52:33;;;;;;;3.42;3.00;;;;;;;;;;5094714;28;20204;-85
2021/10/20 10:55:14;;;;;;;3.25;2.95;;;;;;;;;;5093369;28;20638;-85
2021/10/20 10:57:45;;;;;;;3.85;3.55;;;;;;;;;;5094706;28;20184;-85
2021/10/20 11:00:34;;;;;;;3.92;3.42;;;;;;;;;;5094708;28;20558;-84
2021/10/20 11:03:17;;;;;;;3.65;3.35;;;;;;;;;;5094571;28;20640;-85
2021/10/20 11:05:57;;;;;;;4.53;3.78;;;;;;;;;;5094461;28;20204;-85
2021/10/20 11:08:25;;;;;;;4.10;3.80;;;;;;;;;;5093477;28;20220;-85
2021/10/20 11:10:59;;;;;;;3.70;3.40;;;;;;;;;;5093143;28;20754;-88
2021/10/20 11:13:27;;;;;;;3.10;2.90;;;;;;;;;;5094337;28;20187;-87
2021/10/20 11:15:55;;;;;;;5.00;3.00;;;;;;;;;;5094096;28;20192;-85
2021/10/20 11:18:28;;;;;;;3.53;3.22;;;;;;;;;;5094107;28;20204;-88
2021/10/20 11:20:57;;;;;;;4.10;3.70;;;;;;;;;;5094225;28;20173;-84
2021/10/20 11:23:30;;;;;;;4.20;3.80;;;;;;;;;;5093932;28;20211;-84
2021/10/20 11:26:02;;;;;;;4.18;3.78;;;;;;;;;;5093531;28;20180;-86
2021/10/20 11:28:32;;;;;;;3.83;3.53;;;;;;;;;;5094251;28;20224;-85
2021/10/20 11:31:07;;;;;;;3.63;3.33;;;;;;;;;;5093758;28;20576;-84
2021/10/20 11:33:35;;;;;;;4.15;3.78;;;;;;;;;;5091599;28;20192;-85
2021/10/20 11:36:04;;;;;;;3.22;2.97;;;;;;;;;;5093826;28;20195;-85
2021/10/20 11:38:35;;;;;;;3.85;3.35;;;;;;;;;;5091137;28;20713;-84
2021/10/20 11:41:03;;;;;;;4.97;4.57;;;;;;;;;;5073472;28;20265;-84
2021/10/20 11:43:39;;;;;;;4.40;4.03;;;;;;;;;;5073318;28;20209;-86
2021/10/20 11:46:07;;;;;;;3.67;3.38;;;;;;;;;;5073326;28;20276;-85
2021/10/20 11:48:36;;;;;;;4.20;3.80;;;;;;;;;;5073895;28;20585;-87
2021/10/20 11:51:05;;;;;;;3.85;3.50;;;;;;;;;;5079145;28;20635;-87
2021/10/20 11:53:41;;;;;;;3.60;3.30;;;;;;;;;;5094207;28;20247;-86
2021/10/20 11:56:13;;;;;;;3.60;3.40;;;;;;;;;;5093958;28;20212;-88
2021/10/20 11:58:42;;;;;;;4.88;4.47;;;;;;;;;;5093120;28;20219;-86
2021/10/20 12:01:10;;;;;;;4.15;3.85;;;;;;;;;;5093203;28;20639;-85
2021/10/20 12:03:39;;;;;;;5.05;3.63;;;;;;;;;;5093379;28;20200;-85
2021/10/20 12:06:10;;;;;;;4.18;3.88;;;;;;;;;;5093352;28;20195;-85
2021/10/20 12:08:45;;;;;;;4.60;4.03;;;;;;;;;;5093539;28;20308;-86
2021/10/20 12:11:15;;;;;;;4.10;3.80;;;;;;;;;;5094865;28;20553;-86
2021/10/20 12:13:45;;;;;;;3.70;3.40;;;;;;;;;;5094295;28;20191;-85
2021/10/20 12:16:23;;;;;;;4.07;3.78;;;;;;;;;;5093305;28;20206;-84
2021/10/20 12:18:54;;;;;;;3.72;3.47;;;;;;;;;;5093501;28;20224;-85
2021/10/20 12:21:32;;;;;;;3.13;2.83;;;;;;;;;;5093863;28;20181;-85
2021/10/20 12:24:02;;;;;;;4.13;2.95;;;;;;;;;;5093192;28;20187;-85
2021/10/20 12:26:32;;;;;;;3.75;3.33;;;;;;;;;;5093603;28;20185;-85
2021/10/20 12:29:05;;;;;;;4.00;3.47;;;;;;;;;;5093186;28;20216;-84
2021/10/20 12:31:36;;;;;;;4.90;4.50;;;;;;;;;;5093361;28;20608;-86
2021/10/20 12:34:04;;;;;;;3.50;3.28;;;;;;;;;;5093151;28;20199;-85
2021/10/20 12:36:38;;;;;;;3.83;3.53;;;;;;;;;;5093661;28;20189;-86
2021/10/20 12:39:06;;;;;;;3.53;3.25;;;;;;;;;;5093406;28;20217;-85
2021/10/20 12:41:56;;;;;;;3.80;3.33;;;;;;;;;;5093214;28;20185;-85
2021/10/20 12:44:25;;;;;;;3.53;3.22;;;;;;;;;;5092679;28;20193;-84
2021/10/20 12:46:53;;;;;;;3.20;3.00;;;;;;;;;;5093235;28;20247;-86
2021/10/20 12:49:36;;;;;;;3.95;3.50;;;;;;;;;;5092718;28;20690;-86
2021/10/20 12:52:09;;;;;;;4.15;3.83;;;;;;;;;;5092820;28;20211;-86
2021/10/20 12:54:37;;;;;;;3.95;3.65;;;;;;;;;;5092306;28;20193;-86
2021/10/20 12:57:05;;;;;;;4.10;3.72;;;;;;;;;;5092516;28;20187;-85
2021/10/20 12:59:37;;;;;;;4.25;3.85;;;;;;;;;;5092616;28;20288;-85
2021/10/20 13:02:06;;;;;;;3.95;3.65;;;;;;;;;;5092578;28;20196;-86
2021/10/20 13:04:33;;;;;;;3.80;3.50;;;;;;;;;;5072800;28;20185;-85
2021/10/20 13:07:01;;;;;;;3.28;3.08;;;;;;;;;;5072883;28;20185;-87
2021/10/20 13:09:29;;;;;;;4.10;3.80;;;;;;;;;;5072350;28;20228;-86
2021/10/20 13:11:57;;;;;;;4.13;3.65;;;;;;;;;;5072754;28;20325;-86
2021/10/20 13:14:25;;;;;;;3.40;3.10;;;;;;;;;;5072786;28;20181;-85
2021/10/20 13:16:53;;;;;;;4.35;4.03;;;;;;;;;;5073591;28;20204;-86
2021/10/20 13:19:21;;;;;;;3.90;3.50;;;;;;;;;;5080441;28;20239;-85
2021/10/20 13:21:48;;;;;;;2.60;2.40;;;;;;;;;;5096530;28;20243;-86
2021/10/20 13:24:15;;;;;;;3.28;3.08;;;;;;;;;;5096747;28;20666;-85
2021/10/20 13:26:45;;;;;;;3.42;3.22;;;;;;;;;;5096937;28;20191;-85
2021/10/20 13:29:13;;;;;;;3.42;3.13;;;;;;;;;;5096625;28;20220;-86
2021/10/20 13:31:41;;;;;;;3.70;3.40;;;;;;;;;;5096157;28;20235;-86
2021/10/20 13:34:08;;;;;;;3.72;3.15;;;;;;;;;;5096513;28;20571;-85
2021/10/20 13:36:36;;;;;;;3.38;3.10;;;;;;;;;;5096877;28;20180;-85
2021/10/20 13:39:05;;;;;;;3.03;2.80;;;;;;;;;;5094777;28;20694;-86
2021/10/20 13:41:32;;;;;;;3.33;3.13;;;;;;;;;;5096315;28;20206;-86
2021/10/20 13:44:02;;;;;;;3.25;3.03;;;;;;;;;;5096284;28;20184;-87
2021/10/20 13:46:37;;;;;;;2.97;2.78;;;;;;;;;;5096040;28;20189;-88
2021/10/20 13:49:06;;;;;;;3.00;2.70;;;;;;;;;;5095929;28;20207;-86
2021/10/20 13:51:34;;;;;;;3.22;2.92;;;;;;;;;;5093979;28;20188;-86
2021/10/20 13:54:05;;;;;;;2.95;2.75;;;;;;;;;;5095438;28;20682;-87
2021/10/20 13:56:32;;;;;;;3.80;3.50;;;;;;;;;;5095968;28;20181;-86
2021/10/20 13:59:02;;;;;;;3.38;3.08;;;;;;;;;;5096082;28;20217;-87
2021/10/20 14:01:30;;;;;;;3.30;3.05;;;;;;;;;;5095803;28;20200;-87
2021/10/20 14:04:26;;;;;;;3.30;3.10;;;;;;;;;;5095842;28;20682;-89
2021/10/20 14:06:55;;;;;;;3.28;2.97;;;;;;;;;;5096279;28;20663;-87
2021/10/20 14:09:30;;;;;;;2.85;2.65;;;;;;;;;;5095914;28;20418;-89
2021/10/20 14:11:57;;;;;;;2.88;2.67;;;;;;;;;;5095801;28;20176;-86
2021/10/20 14:14:26;;;;;;;3.10;2.90;;;;;;;;;;5095234;28;20216;-87
2021/10/20 14:16:55;;;;;;;3.10;2.90;;;;;;;;;;5095501;28;20680;-87
2021/10/20 14:19:22;;;;;;;3.47;3.17;;;;;;;;;;5094988;28;20216;-88
2021/10/20 14:21:50;;;;;;;2.90;2.70;;;;;;;;;;5095054;28;20204;-86
2021/10/20 14:24:25;;;;;;;2.90;2.70;;;;;;;;;;5095500;28;20187;-86
2021/10/20 14:26:59;;;;;;;3.75;3.17;;;;;;;;;;5095435;28;20644;-86
2021/10/20 14:29:39;;;;;;;3.30;3.00;;;;;;;;;;5094332;28;20216;-86
2021/10/20 14:32:13;;;;;;;3.30;3.08;;;;;;;;;;5095439;28;20223;-87
2021/10/20 14:34:40;;;;;;;3.63;3.33;;;;;;;;;;5095707;28;20666;-88
2021/10/20 14:37:08;;;;;;;3.50;3.20;;;;;;;;;;5095104;28;20185;-87
2021/10/20 14:39:37;;;;;;;3.10;2.90;;;;;;;;;;5094994;28;20227;-87
2021/10/20 14:42:20;;;;;;;3.05;2.85;;;;;;;;;;5095235;28;20627;-87
2021/10/20 14:44:49;;;;;;;3.28;3.08;;;;;;;;;;5095315;28;20192;-87
2021/10/20 14:47:18;;;;;;;2.85;2.65;;;;;;;;;;5094983;28;20177;-86
2021/10/20 14:49:53;;;;;;;3.08;2.88;;;;;;;;;;5095014;28;20212;-86
2021/10/20 14:52:22;;;;;;;3.58;3.33;;;;;;;;;;5095173;28;20559;-86
2021/10/20 14:54:49;;;;;;;3.17;2.88;;;;;;;;;;5095468;28;20204;-86
2021/10/20 14:57:23;;;;;;;5.55;3.10;;;;;;;;;;5095327;28;20592;-87
2021/10/20 15:00:01;;;;;;;4.10;3.80;;;;;;;;;;5094983;28;20220;-86
2021/10/20 15:02:36;;;;;;;3.00;2.80;;;;;;;;;;5095004;28;20216;-88
2021/10/20 15:05:10;;;;;;;3.65;3.35;;;;;;;;;;5094645;28;20191;-86
2021/10/20 15:07:38;;;;;;;3.00;2.80;;;;;;;;;;5091325;28;20268;-87
2021/10/20 15:10:06;;;;;;;3.08;2.88;;;;;;;;;;5082037;28;20181;-87
2021/10/20 15:12:58;;;;;;;2.75;2.55;;;;;;;;;;5088250;28;20204;-87
2021/10/20 15:15:29;;;;;;;2.72;2.58;;;;;;;;;;5074447;28;20189;-87
2021/10/20 15:18:01;;;;;;;3.58;2.90;;;;;;;;;;5074181;28;20217;-87